Time;durP1;ratioP1;P1;durP2;ratioP2;P2;SDS_P1;SDS_P2;PMS_P1;PMS_P2;Temp;Humidity;BMP_temperature;BMP_pressure;BME280_temperature;BME280_humidity;BME280_pressure;Samples;Min_cycle;Max_cycle;Signal;HPM_P1;HPM_P2
2022/11/24 00:00:28;;;;;;;19.55;10.27;;;;;;;;;;5055154;28;20049;-76
2022/11/24 00:02:54;;;;;;;21.27;10.63;;;;;;;;;;5055421;28;20041;-76
2022/11/24 00:05:21;;;;;;;20.50;10.27;;;;;;;;;;5052809;28;20503;-76
2022/11/24 00:07:47;;;;;;;19.27;10.20;;;;;;;;;;5049103;28;20056;-76
2022/11/24 00:10:13;;;;;;;17.25;9.63;;;;;;;;;;5043916;28;20046;-76
2022/11/24 00:12:39;;;;;;;26.48;10.05;;;;;;;;;;5053327;28;20040;-76
2022/11/24 00:15:06;;;;;;;21.45;9.32;;;;;;;;;;5053711;28;20057;-76
2022/11/24 00:17:32;;;;;;;21.92;10.43;;;;;;;;;;5054558;28;20094;-76
2022/11/24 00:19:58;;;;;;;23.40;10.05;;;;;;;;;;5051212;28;20537;-76
2022/11/24 00:22:24;;;;;;;24.05;10.43;;;;;;;;;;5039223;28;20053;-76
2022/11/24 00:24:50;;;;;;;21.27;9.60;;;;;;;;;;5053901;28;20045;-77
2022/11/24 00:27:16;;;;;;;19.88;9.75;;;;;;;;;;5051867;28;20387;-76
2022/11/24 00:29:42;;;;;;;20.75;9.55;;;;;;;;;;5051617;28;20120;-76
2022/11/24 00:32:08;;;;;;;23.25;10.35;;;;;;;;;;5047000;28;20049;-77
2022/11/24 00:34:34;;;;;;;28.83;10.20;;;;;;;;;;5043812;28;20048;-76
2022/11/24 00:37:01;;;;;;;21.73;10.25;;;;;;;;;;5052106;28;20075;-76
2022/11/24 00:39:27;;;;;;;24.10;8.98;;;;;;;;;;5054496;28;20510;-76
2022/11/24 00:41:53;;;;;;;18.88;9.82;;;;;;;;;;5053903;28;20060;-76
2022/11/24 00:44:19;;;;;;;18.80;8.65;;;;;;;;;;5054963;28;20049;-76
2022/11/24 00:46:45;;;;;;;22.38;10.18;;;;;;;;;;5036285;28;20537;-76
2022/11/24 00:49:11;;;;;;;17.65;9.48;;;;;;;;;;5054111;28;20041;-76
2022/11/24 00:51:37;;;;;;;21.88;8.73;;;;;;;;;;5054002;28;20041;-76
2022/11/24 00:54:05;;;;;;;20.75;8.70;;;;;;;;;;5050806;28;20091;-76
2022/11/24 00:56:31;;;;;;;27.13;9.98;;;;;;;;;;5031373;28;20127;-76
2022/11/24 00:58:57;;;;;;;20.60;8.82;;;;;;;;;;5052643;28;20395;-76
2022/11/24 01:01:24;;;;;;;21.00;8.75;;;;;;;;;;5044508;28;20517;-76
2022/11/24 01:03:50;;;;;;;24.20;9.30;;;;;;;;;;5052191;28;20115;-76
2022/11/24 01:06:24;;;;;;;22.35;9.27;;;;;;;;;;5051503;28;20392;-76
2022/11/24 01:08:50;;;;;;;21.45;9.38;;;;;;;;;;5053926;28;20446;-76
2022/11/24 01:11:18;;;;;;;25.23;8.90;;;;;;;;;;5046680;28;20440;-76
2022/11/24 01:13:45;;;;;;;22.63;9.73;;;;;;;;;;5053764;28;20124;-76
2022/11/24 01:16:15;;;;;;;18.65;8.68;;;;;;;;;;5053428;28;20057;-76
2022/11/24 01:18:41;;;;;;;19.92;8.13;;;;;;;;;;5050978;28;20037;-76
2022/11/24 01:21:07;;;;;;;19.15;8.18;;;;;;;;;;5051130;28;20033;-76
2022/11/24 01:23:34;;;;;;;23.77;8.55;;;;;;;;;;5054198;28;20360;-76
2022/11/24 01:26:00;;;;;;;20.52;8.20;;;;;;;;;;5037011;28;20441;-76
2022/11/24 01:28:26;;;;;;;23.80;9.20;;;;;;;;;;5055017;28;20124;-76
2022/11/24 01:31:02;;;;;;;21.63;8.40;;;;;;;;;;5057304;28;20048;-76
2022/11/24 01:33:28;;;;;;;21.58;8.02;;;;;;;;;;5041034;28;20037;-76
2022/11/24 01:35:55;;;;;;;25.17;8.15;;;;;;;;;;5040890;28;20124;-76
2022/11/24 01:38:21;;;;;;;20.92;7.43;;;;;;;;;;5053424;28;20407;-76
2022/11/24 01:40:47;;;;;;;18.63;7.60;;;;;;;;;;5053504;28;20045;-76
2022/11/24 01:43:17;;;;;;;24.15;7.07;;;;;;;;;;5054143;28;20041;-77
2022/11/24 01:45:44;;;;;;;18.73;6.72;;;;;;;;;;5053746;28;20047;-76
2022/11/24 01:48:16;;;;;;;22.88;6.95;;;;;;;;;;5049118;28;20116;-75
2022/11/24 01:50:43;;;;;;;17.95;7.05;;;;;;;;;;5047842;28;20045;-77
2022/11/24 01:53:10;;;;;;;20.30;6.72;;;;;;;;;;5052662;28;20048;-75
2022/11/24 01:55:37;;;;;;;18.27;6.30;;;;;;;;;;5043755;28;20102;-75
2022/11/24 01:58:09;;;;;;;19.73;5.88;;;;;;;;;;5053611;28;20052;-75
2022/11/24 02:00:36;;;;;;;17.10;5.38;;;;;;;;;;5039206;28;20135;-75
2022/11/24 02:03:03;;;;;;;24.98;5.95;;;;;;;;;;5051760;28;20040;-75
2022/11/24 02:05:47;;;;;;;15.75;5.57;;;;;;;;;;5050971;28;20167;-75
2022/11/24 02:08:20;;;;;;;15.63;5.53;;;;;;;;;;5052965;28;20045;-75
2022/11/24 02:10:48;;;;;;;18.92;5.40;;;;;;;;;;5049558;28;20045;-75
2022/11/24 02:13:14;;;;;;;19.40;5.53;;;;;;;;;;5052638;28;20095;-75
2022/11/24 02:15:41;;;;;;;18.02;5.95;;;;;;;;;;5042626;28;20081;-75
2022/11/24 02:18:07;;;;;;;17.88;5.15;;;;;;;;;;5052821;28;20099;-75
2022/11/24 02:20:33;;;;;;;18.17;5.45;;;;;;;;;;5052289;28;20120;-76
2022/11/24 02:23:21;;;;;;;19.77;5.68;;;;;;;;;;5052147;28;20048;-76
2022/11/24 02:25:54;;;;;;;17.05;5.65;;;;;;;;;;5048882;28;20052;-76
2022/11/24 02:28:21;;;;;;;16.52;4.85;;;;;;;;;;5040438;28;20120;-76
2022/11/24 02:30:48;;;;;;;16.52;5.03;;;;;;;;;;5034924;28;20103;-76
2022/11/24 02:33:14;;;;;;;17.60;4.60;;;;;;;;;;5046508;28;20183;-76
2022/11/24 02:35:40;;;;;;;17.35;4.35;;;;;;;;;;5053305;28;20052;-76
2022/11/24 02:38:06;;;;;;;15.93;4.13;;;;;;;;;;5046698;28;20048;-76
2022/11/24 02:40:33;;;;;;;17.50;4.25;;;;;;;;;;5051717;28;20049;-76
2022/11/24 02:43:05;;;;;;;15.32;4.28;;;;;;;;;;5037694;28;20083;-76
2022/11/24 02:45:31;;;;;;;17.00;4.00;;;;;;;;;;5048824;28;20041;-76
2022/11/24 02:47:58;;;;;;;20.80;4.65;;;;;;;;;;5033742;28;20128;-76
2022/11/24 02:50:24;;;;;;;13.13;4.20;;;;;;;;;;5050752;28;20056;-76
2022/11/24 02:52:50;;;;;;;18.88;4.00;;;;;;;;;;5051725;28;20041;-76
2022/11/24 02:55:16;;;;;;;11.73;4.03;;;;;;;;;;5048461;28;20041;-76
2022/11/24 02:57:42;;;;;;;19.80;5.15;;;;;;;;;;5051829;28;20048;-76
2022/11/24 03:00:09;;;;;;;15.38;4.63;;;;;;;;;;5052776;28;20360;-77
2022/11/24 03:02:35;;;;;;;13.13;4.57;;;;;;;;;;5047325;28;20055;-77
2022/11/24 03:05:01;;;;;;;18.35;4.60;;;;;;;;;;5052817;28;20120;-77
2022/11/24 03:07:27;;;;;;;11.70;4.43;;;;;;;;;;5051426;28;20116;-77
2022/11/24 03:09:53;;;;;;;16.40;3.97;;;;;;;;;;5041224;28;20045;-77
2022/11/24 03:12:19;;;;;;;18.88;4.28;;;;;;;;;;5050021;28;20086;-77
2022/11/24 03:14:45;;;;;;;25.42;5.43;;;;;;;;;;5050725;28;20087;-77
2022/11/24 03:17:11;;;;;;;22.58;5.45;;;;;;;;;;5052314;28;20045;-77
2022/11/24 03:19:37;;;;;;;15.02;4.72;;;;;;;;;;5050386;28;20041;-77
2022/11/24 03:22:03;;;;;;;15.55;4.93;;;;;;;;;;5051116;28;20037;-77
2022/11/24 03:24:29;;;;;;;13.02;4.47;;;;;;;;;;5052559;28;20107;-77
2022/11/24 03:26:56;;;;;;;11.65;3.83;;;;;;;;;;5047394;28;20399;-77
2022/11/24 03:29:22;;;;;;;12.57;4.13;;;;;;;;;;5054594;28;20115;-77
2022/11/24 03:31:48;;;;;;;13.85;4.65;;;;;;;;;;5053838;28;20422;-77
2022/11/24 03:34:14;;;;;;;19.98;4.50;;;;;;;;;;5067249;28;20056;-77
2022/11/24 03:36:40;;;;;;;12.80;4.43;;;;;;;;;;5051389;28;20120;-77
2022/11/24 03:39:06;;;;;;;12.85;4.68;;;;;;;;;;5040068;28;20046;-77
2022/11/24 03:41:32;;;;;;;12.85;5.03;;;;;;;;;;5051634;28;20049;-77
2022/11/24 03:43:58;;;;;;;15.77;3.75;;;;;;;;;;5056047;28;20551;-77
2022/11/24 03:46:24;;;;;;;14.00;4.75;;;;;;;;;;5033902;28;20048;-77
2022/11/24 03:48:50;;;;;;;12.57;4.07;;;;;;;;;;5042033;28;20060;-77
2022/11/24 03:51:16;;;;;;;16.83;4.07;;;;;;;;;;5052907;28;20045;-77
2022/11/24 03:53:42;;;;;;;15.55;4.20;;;;;;;;;;5052979;28;20043;-77
2022/11/24 03:56:09;;;;;;;16.73;4.15;;;;;;;;;;5050836;28;20054;-77
2022/11/24 03:58:35;;;;;;;17.30;5.07;;;;;;;;;;5049236;28;20511;-77
2022/11/24 04:01:01;;;;;;;17.35;4.20;;;;;;;;;;5053845;28;20519;-77
2022/11/24 04:03:27;;;;;;;19.27;4.43;;;;;;;;;;5036499;28;20069;-77
2022/11/24 04:05:53;;;;;;;17.88;5.07;;;;;;;;;;5039989;28;20128;-77
2022/11/24 04:08:19;;;;;;;11.75;4.15;;;;;;;;;;5050212;28;20049;-77
2022/11/24 04:10:49;;;;;;;15.05;4.40;;;;;;;;;;5046558;28;20467;-77
2022/11/24 04:13:16;;;;;;;14.07;4.35;;;;;;;;;;5051504;28;20044;-77
2022/11/24 04:15:42;;;;;;;15.52;4.07;;;;;;;;;;5053437;28;20049;-77
2022/11/24 04:18:09;;;;;;;17.88;4.25;;;;;;;;;;5053052;28;20396;-77
2022/11/24 04:20:36;;;;;;;18.10;5.03;;;;;;;;;;5039824;28;20048;-77
2022/11/24 04:23:02;;;;;;;12.15;3.85;;;;;;;;;;5066643;28;20120;-77
2022/11/24 04:25:29;;;;;;;14.02;4.68;;;;;;;;;;5054568;28;20041;-76
2022/11/24 04:27:55;;;;;;;15.43;4.00;;;;;;;;;;5054033;28;20100;-76
2022/11/24 04:30:22;;;;;;;21.15;4.40;;;;;;;;;;5055531;28;20072;-77
2022/11/24 04:32:48;;;;;;;17.77;4.03;;;;;;;;;;5033797;28;20057;-77
2022/11/24 04:35:14;;;;;;;16.55;4.35;;;;;;;;;;5050379;28;20068;-77
2022/11/24 04:37:40;;;;;;;15.63;4.10;;;;;;;;;;5054692;28;20049;-77
2022/11/24 04:40:08;;;;;;;15.65;4.40;;;;;;;;;;5051021;28;20037;-77
2022/11/24 04:42:34;;;;;;;12.10;3.72;;;;;;;;;;5043833;28;20041;-76
2022/11/24 04:45:00;;;;;;;15.23;4.07;;;;;;;;;;5055514;28;20045;-76
2022/11/24 04:47:26;;;;;;;15.85;4.00;;;;;;;;;;5058587;28;20056;-77
2022/11/24 04:49:52;;;;;;;15.43;4.15;;;;;;;;;;5052628;28;20048;-77
2022/11/24 04:52:19;;;;;;;18.42;4.13;;;;;;;;;;5046676;28;20602;-77
2022/11/24 04:54:46;;;;;;;16.08;4.57;;;;;;;;;;5053222;28;20064;-77
2022/11/24 04:57:16;;;;;;;22.35;4.43;;;;;;;;;;5052905;28;20071;-77
2022/11/24 04:59:42;;;;;;;16.10;4.55;;;;;;;;;;5047887;28;20040;-77
2022/11/24 05:02:09;;;;;;;15.05;4.30;;;;;;;;;;5052268;28;20136;-77
2022/11/24 05:04:35;;;;;;;14.52;3.78;;;;;;;;;;5052662;28;20136;-77
2022/11/24 05:07:01;;;;;;;16.30;4.30;;;;;;;;;;5043105;28;20044;-77
2022/11/24 05:09:27;;;;;;;14.60;4.60;;;;;;;;;;5052935;28;20118;-77
2022/11/24 05:11:53;;;;;;;12.13;3.97;;;;;;;;;;5054656;28;20098;-77
2022/11/24 05:14:19;;;;;;;9.73;3.80;;;;;;;;;;5039229;28;20053;-77
2022/11/24 05:16:45;;;;;;;16.05;4.15;;;;;;;;;;5052631;28;20041;-77
2022/11/24 05:19:12;;;;;;;16.52;4.07;;;;;;;;;;5051841;28;20490;-77
2022/11/24 05:21:38;;;;;;;11.70;4.43;;;;;;;;;;5053408;28;20396;-77
2022/11/24 05:24:04;;;;;;;13.80;4.10;;;;;;;;;;5053066;28;20415;-77
2022/11/24 05:26:30;;;;;;;12.25;3.83;;;;;;;;;;5051449;28;20064;-77
2022/11/24 05:28:56;;;;;;;14.45;4.30;;;;;;;;;;5043665;28;20139;-77
2022/11/24 05:31:22;;;;;;;15.27;3.88;;;;;;;;;;5049128;28;20436;-77
2022/11/24 05:33:48;;;;;;;15.98;4.55;;;;;;;;;;5049643;28;20045;-77
2022/11/24 05:38:59;;;;;;;19.42;4.63;;;;;;;;;;5046742;28;20045;-77
2022/11/24 05:41:26;;;;;;;15.88;4.22;;;;;;;;;;5045893;28;20036;-77
2022/11/24 05:43:52;;;;;;;8.57;3.70;;;;;;;;;;5047452;28;20120;-77
2022/11/24 05:46:18;;;;;;;12.27;4.07;;;;;;;;;;5044287;28;20037;-77
2022/11/24 05:48:44;;;;;;;11.60;3.50;;;;;;;;;;5053301;28;20069;-77
2022/11/24 05:51:10;;;;;;;12.77;4.13;;;;;;;;;;5043766;28;20057;-77
2022/11/24 05:53:36;;;;;;;15.27;4.47;;;;;;;;;;5049129;28;20095;-77
2022/11/24 05:56:03;;;;;;;12.20;3.88;;;;;;;;;;5052460;28;20110;-77
2022/11/24 05:58:29;;;;;;;11.65;3.80;;;;;;;;;;5050069;28;20040;-77
2022/11/24 06:00:55;;;;;;;13.07;3.95;;;;;;;;;;5051003;28;20431;-77
2022/11/24 06:03:21;;;;;;;13.07;3.95;;;;;;;;;;5053429;28;20486;-77
2022/11/24 06:05:47;;;;;;;12.73;3.55;;;;;;;;;;5045407;28;20047;-78
2022/11/24 06:08:13;;;;;;;16.40;3.83;;;;;;;;;;5045349;28;20045;-77
2022/11/24 06:10:39;;;;;;;15.52;4.20;;;;;;;;;;5049915;28;20514;-77
2022/11/24 06:13:06;;;;;;;14.77;3.53;;;;;;;;;;5046489;28;20127;-77
2022/11/24 06:15:36;;;;;;;13.57;3.67;;;;;;;;;;5043226;28;20439;-77
2022/11/24 06:18:02;;;;;;;14.10;4.05;;;;;;;;;;5040641;28;20479;-77
2022/11/24 06:20:29;;;;;;;12.07;4.00;;;;;;;;;;5051736;28;20064;-77
2022/11/24 06:22:57;;;;;;;15.48;4.05;;;;;;;;;;5040824;28;20107;-77
2022/11/24 06:25:23;;;;;;;18.67;3.80;;;;;;;;;;5049583;28;20450;-77
2022/11/24 06:27:49;;;;;;;17.05;4.25;;;;;;;;;;5051075;28;20479;-77
2022/11/24 06:30:15;;;;;;;17.05;3.97;;;;;;;;;;5049429;28;20049;-77
2022/11/24 06:32:43;;;;;;;12.45;4.10;;;;;;;;;;5044556;28;20049;-77
2022/11/24 06:35:13;;;;;;;12.95;3.95;;;;;;;;;;5055501;28;20049;-78
2022/11/24 06:37:39;;;;;;;11.80;3.67;;;;;;;;;;5052823;28;20049;-77
2022/11/24 06:40:09;;;;;;;16.08;4.50;;;;;;;;;;5038702;28;20041;-76
2022/11/24 06:42:36;;;;;;;14.65;4.20;;;;;;;;;;5052207;28;20049;-76
2022/11/24 06:45:02;;;;;;;12.68;4.20;;;;;;;;;;5050729;28;20033;-76
2022/11/24 06:47:29;;;;;;;13.80;4.03;;;;;;;;;;5050348;28;20514;-76
2022/11/24 06:49:55;;;;;;;18.00;4.20;;;;;;;;;;5044406;28;20491;-76
2022/11/24 06:52:21;;;;;;;14.93;4.38;;;;;;;;;;5051879;28;20049;-76
2022/11/24 06:54:47;;;;;;;17.13;4.28;;;;;;;;;;5049485;28;20036;-76
2022/11/24 06:57:13;;;;;;;13.68;4.80;;;;;;;;;;5040487;28;20059;-76
2022/11/24 06:59:39;;;;;;;10.57;4.28;;;;;;;;;;5068461;28;20471;-78
2022/11/24 07:02:05;;;;;;;13.82;4.28;;;;;;;;;;5050668;28;20100;-76
2022/11/24 07:04:31;;;;;;;13.70;4.55;;;;;;;;;;5055208;28;20491;-78
2022/11/24 07:06:58;;;;;;;11.48;4.25;;;;;;;;;;5064734;28;20049;-77
2022/11/24 07:09:24;;;;;;;14.65;4.47;;;;;;;;;;5044669;28;20484;-76
2022/11/24 07:11:50;;;;;;;17.85;4.45;;;;;;;;;;5056400;28;20055;-76
2022/11/24 07:14:17;;;;;;;12.52;4.07;;;;;;;;;;5056273;28;20057;-77
2022/11/24 07:16:44;;;;;;;11.60;4.18;;;;;;;;;;5036672;28;20076;-77
2022/11/24 07:19:10;;;;;;;16.13;4.43;;;;;;;;;;5037274;28;20476;-77
2022/11/24 07:21:36;;;;;;;11.95;4.25;;;;;;;;;;5050736;28;20048;-76
2022/11/24 07:24:02;;;;;;;10.60;4.20;;;;;;;;;;5038724;28;20053;-77
2022/11/24 07:26:28;;;;;;;15.95;4.50;;;;;;;;;;5035927;28;20104;-77
2022/11/24 07:28:54;;;;;;;12.88;4.72;;;;;;;;;;5051131;28;20037;-77
2022/11/24 07:31:23;;;;;;;11.57;3.95;;;;;;;;;;5054324;28;20095;-77
2022/11/24 07:33:50;;;;;;;13.40;3.85;;;;;;;;;;5045232;28;20099;-77
2022/11/24 07:36:17;;;;;;;15.18;4.10;;;;;;;;;;5047036;28;20088;-77
2022/11/24 07:38:43;;;;;;;10.60;3.60;;;;;;;;;;5054640;28;20125;-77
2022/11/24 07:41:11;;;;;;;14.98;4.38;;;;;;;;;;5020741;28;20054;-77
2022/11/24 07:43:38;;;;;;;10.80;3.72;;;;;;;;;;5054912;28;20073;-77
2022/11/24 07:46:05;;;;;;;9.13;3.40;;;;;;;;;;5052168;28;20480;-77
2022/11/24 07:48:31;;;;;;;12.10;3.75;;;;;;;;;;5046170;28;20045;-77
2022/11/24 07:51:01;;;;;;;10.50;3.95;;;;;;;;;;5046161;28;20114;-78
2022/11/24 07:53:27;;;;;;;12.45;3.90;;;;;;;;;;5047015;28;20080;-78
2022/11/24 07:55:54;;;;;;;12.25;3.60;;;;;;;;;;5051557;28;20041;-78
2022/11/24 07:58:20;;;;;;;12.60;3.58;;;;;;;;;;5038937;28;20138;-78
2022/11/24 08:00:46;;;;;;;10.27;3.60;;;;;;;;;;5052758;28;20510;-78
2022/11/24 08:03:12;;;;;;;10.23;3.70;;;;;;;;;;5039274;28;20041;-78
2022/11/24 08:05:38;;;;;;;11.05;3.92;;;;;;;;;;5056116;28;20541;-78
2022/11/24 08:08:04;;;;;;;12.52;4.03;;;;;;;;;;5036774;28;20045;-78
2022/11/24 08:10:30;;;;;;;9.02;3.72;;;;;;;;;;5036467;28;20419;-78
2022/11/24 08:13:00;;;;;;;8.85;4.00;;;;;;;;;;5051658;28;20032;-78
2022/11/24 08:15:26;;;;;;;9.60;3.72;;;;;;;;;;5033968;28;20053;-78
2022/11/24 08:17:52;;;;;;;7.97;4.20;;;;;;;;;;5042974;28;20096;-78
2022/11/24 08:20:19;;;;;;;11.18;3.75;;;;;;;;;;5042551;28;20042;-78
2022/11/24 08:22:45;;;;;;;11.35;4.00;;;;;;;;;;5038129;28;20049;-78
2022/11/24 08:25:13;;;;;;;9.05;3.88;;;;;;;;;;5054881;28;20060;-78
2022/11/24 08:27:39;;;;;;;6.88;3.28;;;;;;;;;;5053595;28;20068;-77
2022/11/24 08:30:06;;;;;;;11.95;4.63;;;;;;;;;;5044689;28;20098;-77
2022/11/24 08:32:32;;;;;;;8.85;4.40;;;;;;;;;;5056098;28;20037;-78
2022/11/24 08:34:58;;;;;;;8.18;3.80;;;;;;;;;;5053363;28;20691;-78
2022/11/24 08:37:26;;;;;;;9.88;3.65;;;;;;;;;;5048704;28;20049;-78
2022/11/24 08:39:52;;;;;;;11.90;4.50;;;;;;;;;;5057270;28;20120;-79
2022/11/24 08:42:18;;;;;;;16.10;4.10;;;;;;;;;;5036489;28;20099;-78
2022/11/24 08:44:44;;;;;;;14.18;4.18;;;;;;;;;;5037273;28;20488;-78
2022/11/24 08:47:10;;;;;;;8.60;4.15;;;;;;;;;;5052080;28;20060;-77
2022/11/24 08:49:36;;;;;;;11.48;3.90;;;;;;;;;;5036334;28;20105;-80
2022/11/24 08:52:02;;;;;;;10.38;4.25;;;;;;;;;;5041204;28;20041;-80
2022/11/24 08:54:28;;;;;;;10.20;4.07;;;;;;;;;;5056667;28;20056;-80
2022/11/24 08:56:54;;;;;;;11.60;3.78;;;;;;;;;;5034071;28;20112;-80
2022/11/24 08:59:21;;;;;;;11.60;4.05;;;;;;;;;;5037583;28;20080;-79
2022/11/24 09:01:48;;;;;;;10.77;4.13;;;;;;;;;;5050243;28;20038;-79
2022/11/24 09:04:14;;;;;;;8.23;3.67;;;;;;;;;;5049598;28;20103;-79
2022/11/24 09:06:40;;;;;;;8.73;3.90;;;;;;;;;;5039793;28;20046;-80
2022/11/24 09:09:06;;;;;;;10.63;4.15;;;;;;;;;;5045020;28;20037;-78
2022/11/24 09:11:33;;;;;;;10.65;3.97;;;;;;;;;;5054423;28;20044;-78
2022/11/24 09:13:59;;;;;;;11.60;4.50;;;;;;;;;;5056159;28;20041;-78
2022/11/24 09:16:26;;;;;;;11.27;3.97;;;;;;;;;;5055904;28;20131;-78
2022/11/24 09:18:55;;;;;;;6.47;3.50;;;;;;;;;;5053875;28;20124;-78
2022/11/24 09:21:23;;;;;;;10.13;4.18;;;;;;;;;;5053893;28;20393;-79
2022/11/24 09:23:50;;;;;;;8.45;3.85;;;;;;;;;;5054513;28;20495;-78
2022/11/24 09:26:20;;;;;;;8.77;4.40;;;;;;;;;;5039756;28;20053;-78
2022/11/24 09:28:46;;;;;;;7.75;3.92;;;;;;;;;;5054429;28;20041;-78
2022/11/24 09:31:14;;;;;;;7.60;3.70;;;;;;;;;;5041334;28;20057;-78
2022/11/24 09:33:40;;;;;;;8.82;3.80;;;;;;;;;;5034470;28;20095;-78
2022/11/24 09:36:06;;;;;;;8.20;4.07;;;;;;;;;;5034599;28;20092;-79
2022/11/24 09:38:32;;;;;;;9.20;3.45;;;;;;;;;;5034281;28;20042;-79
2022/11/24 09:41:17;;;;;;;7.93;3.53;;;;;;;;;;5032984;28;20049;-79
2022/11/24 09:44:06;;;;;;;9.77;3.33;;;;;;;;;;5052142;28;20388;-78
2022/11/24 09:46:51;;;;;;;7.10;3.13;;;;;;;;;;5052698;28;20114;-79
2022/11/24 09:49:22;;;;;;;7.20;2.90;;;;;;;;;;5034103;28;20042;-79
2022/11/24 09:51:49;;;;;;;10.05;3.05;;;;;;;;;;5049654;28;20041;-79
2022/11/24 09:54:20;;;;;;;10.85;2.90;;;;;;;;;;5056166;28;20041;-79
2022/11/24 09:56:46;;;;;;;7.95;2.38;;;;;;;;;;5054202;28;20080;-79
2022/11/24 09:59:31;;;;;;;6.13;2.80;;;;;;;;;;5047233;28;20117;-79
2022/11/24 10:01:57;;;;;;;6.68;2.50;;;;;;;;;;5049480;28;20090;-79
2022/11/24 10:04:33;;;;;;;7.40;2.40;;;;;;;;;;5053253;28;20044;-79
2022/11/24 10:07:12;;;;;;;9.00;2.92;;;;;;;;;;5055971;28;20048;-78
2022/11/24 10:09:38;;;;;;;5.35;2.58;;;;;;;;;;5039994;28;20049;-79
2022/11/24 10:12:22;;;;;;;7.15;2.33;;;;;;;;;;5054144;28;20045;-79
2022/11/24 10:14:48;;;;;;;7.80;2.83;;;;;;;;;;5051567;28;20057;-78
2022/11/24 10:17:33;;;;;;;5.30;2.13;;;;;;;;;;5043670;28;20045;-78
2022/11/24 10:20:08;;;;;;;5.97;2.35;;;;;;;;;;5041045;28;20120;-78
2022/11/24 10:22:53;;;;;;;8.32;2.58;;;;;;;;;;5054398;28;20053;-78
2022/11/24 10:25:30;;;;;;;5.07;2.70;;;;;;;;;;5044382;28;20037;-78
2022/11/24 10:27:58;;;;;;;5.47;2.35;;;;;;;;;;5048541;28;20403;-77
2022/11/24 10:30:25;;;;;;;8.23;2.63;;;;;;;;;;5054189;28;20048;-78
2022/11/24 10:32:55;;;;;;;6.20;2.38;;;;;;;;;;5053358;28;20099;-78
2022/11/24 10:35:23;;;;;;;7.05;2.38;;;;;;;;;;5052943;28;20045;-78
2022/11/24 10:38:16;;;;;;;9.00;2.70;;;;;;;;;;5051325;28;20191;-77
2022/11/24 10:40:47;;;;;;;7.95;2.40;;;;;;;;;;5051422;28;20052;-79
2022/11/24 10:43:13;;;;;;;5.10;2.60;;;;;;;;;;5054365;28;20120;-78
2022/11/24 10:45:39;;;;;;;9.63;5.38;;;;;;;;;;5059824;28;20127;-78
2022/11/24 10:48:07;;;;;;;7.18;2.70;;;;;;;;;;5060788;28;20041;-78
2022/11/24 10:50:38;;;;;;;6.68;2.92;;;;;;;;;;5054777;28;20232;-78
2022/11/24 10:53:13;;;;;;;7.70;3.30;;;;;;;;;;5055195;28;20041;-78
2022/11/24 10:56:03;;;;;;;6.35;3.30;;;;;;;;;;5040763;28;20045;-78
2022/11/24 10:58:34;;;;;;;7.70;3.40;;;;;;;;;;5031343;28;20064;-78
2022/11/24 11:01:02;;;;;;;6.95;3.75;;;;;;;;;;5038619;28;20508;-78
2022/11/24 11:03:32;;;;;;;8.93;3.45;;;;;;;;;;5044959;28;20044;-78
2022/11/24 11:06:03;;;;;;;7.32;3.60;;;;;;;;;;5043370;28;20044;-79
2022/11/24 11:08:30;;;;;;;7.28;3.58;;;;;;;;;;5054001;28;20043;-78
2022/11/24 11:11:15;;;;;;;7.55;3.45;;;;;;;;;;5057688;28;20552;-78
2022/11/24 11:14:01;;;;;;;11.38;3.97;;;;;;;;;;5058539;28;20045;-79
2022/11/24 11:16:30;;;;;;;9.80;3.83;;;;;;;;;;5058617;28;20083;-79
2022/11/24 11:18:56;;;;;;;9.77;3.72;;;;;;;;;;5050814;28;20133;-79
2022/11/24 11:21:32;;;;;;;6.88;3.55;;;;;;;;;;5054743;28;20107;-79
2022/11/24 11:23:59;;;;;;;8.45;3.67;;;;;;;;;;5042346;28;20045;-79
2022/11/24 11:26:30;;;;;;;11.68;5.10;;;;;;;;;;5044034;28;20045;-79
2022/11/24 11:28:58;;;;;;;9.68;4.30;;;;;;;;;;5038768;28;20118;-79
2022/11/24 11:31:24;;;;;;;12.35;4.28;;;;;;;;;;5038340;28;20054;-79
2022/11/24 11:33:59;;;;;;;9.82;4.30;;;;;;;;;;5037681;28;20095;-79
2022/11/24 11:36:26;;;;;;;10.45;4.15;;;;;;;;;;5052255;28;20046;-79
2022/11/24 11:38:52;;;;;;;11.43;4.13;;;;;;;;;;5046514;28;20041;-79
2022/11/24 11:41:33;;;;;;;11.95;4.60;;;;;;;;;;5057954;28;20041;-79
2022/11/24 11:44:08;;;;;;;9.85;4.55;;;;;;;;;;5041689;28;20087;-79
2022/11/24 11:46:34;;;;;;;12.50;4.50;;;;;;;;;;5038097;28;20391;-79
2022/11/24 11:49:01;;;;;;;10.75;4.45;;;;;;;;;;5037196;28;20514;-79
2022/11/24 11:51:46;;;;;;;10.25;3.85;;;;;;;;;;5024159;28;20163;-81
2022/11/24 11:54:25;;;;;;;11.43;4.32;;;;;;;;;;5059046;28;20051;-79
2022/11/24 11:57:05;;;;;;;8.43;3.97;;;;;;;;;;5056903;28;20048;-79
2022/11/24 11:59:37;;;;;;;8.90;4.20;;;;;;;;;;5056707;28;20041;-79
2022/11/24 12:02:25;;;;;;;8.02;3.80;;;;;;;;;;5040585;28;20049;-79
2022/11/24 12:04:52;;;;;;;9.23;4.00;;;;;;;;;;5037523;28;20049;-79
2022/11/24 12:07:18;;;;;;;10.90;3.95;;;;;;;;;;5037598;28;20071;-79
2022/11/24 12:09:47;;;;;;;9.05;3.90;;;;;;;;;;5038051;28;20076;-79
2022/11/24 12:12:25;;;;;;;14.60;3.97;;;;;;;;;;5037055;28;20041;-79
2022/11/24 12:14:57;;;;;;;10.20;3.72;;;;;;;;;;5057270;28;20057;-79
2022/11/24 12:17:34;;;;;;;8.93;3.45;;;;;;;;;;5057446;28;20041;-79
2022/11/24 12:20:14;;;;;;;8.13;3.28;;;;;;;;;;5057457;28;20119;-79
2022/11/24 12:22:50;;;;;;;8.07;3.97;;;;;;;;;;5052391;28;20045;-79
2022/11/24 12:25:28;;;;;;;11.75;3.92;;;;;;;;;;5043489;28;20053;-79
2022/11/24 12:28:13;;;;;;;10.85;4.22;;;;;;;;;;5046616;28;20046;-79
2022/11/24 12:31:02;;;;;;;9.70;3.75;;;;;;;;;;5038192;28;20045;-79
2022/11/24 12:33:36;;;;;;;7.70;4.25;;;;;;;;;;5038025;28;20049;-79
2022/11/24 12:36:22;;;;;;;11.50;3.95;;;;;;;;;;5038163;28;20046;-79
2022/11/24 12:39:01;;;;;;;13.18;3.60;;;;;;;;;;5026802;28;20050;-79
2022/11/24 12:41:30;;;;;;;9.70;3.53;;;;;;;;;;5038074;28;20049;-79
2022/11/24 12:43:57;;;;;;;13.68;3.70;;;;;;;;;;5037275;28;20045;-79
2022/11/24 12:46:42;;;;;;;13.02;3.60;;;;;;;;;;5048434;28;20083;-78
2022/11/24 12:49:23;;;;;;;8.80;3.60;;;;;;;;;;5056369;28;20052;-78
2022/11/24 12:51:54;;;;;;;13.68;3.58;;;;;;;;;;5051451;28;20060;-78
2022/11/24 12:54:21;;;;;;;14.60;3.85;;;;;;;;;;5036028;28;20052;-78
2022/11/24 12:56:53;;;;;;;8.30;3.17;;;;;;;;;;5037492;28;20069;-78
2022/11/24 12:59:37;;;;;;;11.07;3.72;;;;;;;;;;5036761;28;20472;-78
2022/11/24 13:02:22;;;;;;;12.55;4.20;;;;;;;;;;5051751;28;20044;-78
2022/11/24 13:04:54;;;;;;;11.85;3.67;;;;;;;;;;5056112;28;20044;-78
2022/11/24 13:07:24;;;;;;;13.05;4.65;;;;;;;;;;5055933;28;20048;-78
2022/11/24 13:10:09;;;;;;;11.93;3.70;;;;;;;;;;5056840;28;20048;-78
2022/11/24 13:12:52;;;;;;;9.20;3.38;;;;;;;;;;5056349;28;20044;-78
2022/11/24 13:15:18;;;;;;;8.73;3.90;;;;;;;;;;5054944;28;20511;-78
2022/11/24 13:17:44;;;;;;;13.55;3.83;;;;;;;;;;5053332;28;20422;-78
2022/11/24 13:20:15;;;;;;;9.82;3.53;;;;;;;;;;5054408;28;20045;-78
2022/11/24 13:22:46;;;;;;;11.10;3.53;;;;;;;;;;5056592;28;20106;-78
2022/11/24 13:25:20;;;;;;;11.00;3.22;;;;;;;;;;5056062;28;20049;-78
2022/11/24 13:27:48;;;;;;;13.30;3.70;;;;;;;;;;5054742;28;20582;-78
2022/11/24 13:30:32;;;;;;;9.05;3.47;;;;;;;;;;5051474;28;20053;-78
2022/11/24 13:32:59;;;;;;;14.93;3.70;;;;;;;;;;5047253;28;20509;-78
2022/11/24 13:35:25;;;;;;;10.82;3.22;;;;;;;;;;5056503;28;20128;-78
2022/11/24 13:37:51;;;;;;;12.85;3.30;;;;;;;;;;5043799;28;20056;-78
2022/11/24 13:40:19;;;;;;;13.35;3.00;;;;;;;;;;5036532;28;20041;-78
2022/11/24 13:43:06;;;;;;;13.98;3.40;;;;;;;;;;5036324;28;20049;-79
2022/11/24 13:45:38;;;;;;;9.25;2.80;;;;;;;;;;5038949;28;20458;-79
2022/11/24 13:48:19;;;;;;;14.70;3.20;;;;;;;;;;5055470;28;20041;-79
2022/11/24 13:50:49;;;;;;;16.08;3.78;;;;;;;;;;5056308;28;20134;-79
2022/11/24 13:53:21;;;;;;;12.55;3.08;;;;;;;;;;5056452;28;20032;-79
2022/11/24 13:55:59;;;;;;;13.60;3.40;;;;;;;;;;5056287;28;20423;-79
2022/11/24 13:58:25;;;;;;;10.85;3.17;;;;;;;;;;5055325;28;20365;-81
2022/11/24 14:01:01;;;;;;;14.02;4.05;;;;;;;;;;5036048;28;20052;-82
2022/11/24 14:03:33;;;;;;;11.80;3.30;;;;;;;;;;5052741;28;20068;-81
2022/11/24 14:06:00;;;;;;;9.35;3.33;;;;;;;;;;5050900;28;20047;-81
2022/11/24 14:08:28;;;;;;;10.43;3.00;;;;;;;;;;5064765;28;20051;-81
2022/11/24 14:10:55;;;;;;;13.27;3.50;;;;;;;;;;5032358;28;20484;-81
2022/11/24 14:13:32;;;;;;;15.50;3.60;;;;;;;;;;5043240;28;20053;-81
2022/11/24 14:16:10;;;;;;;12.10;3.42;;;;;;;;;;5053293;28;20045;-82
2022/11/24 14:18:37;;;;;;;17.23;4.35;;;;;;;;;;5051055;28;20053;-81
2022/11/24 14:21:15;;;;;;;13.65;3.50;;;;;;;;;;5053702;28;20056;-82
2022/11/24 14:23:44;;;;;;;17.67;4.40;;;;;;;;;;5038911;28;20123;-81
2022/11/24 14:26:18;;;;;;;17.45;3.70;;;;;;;;;;5033390;28;20041;-81
2022/11/24 14:28:44;;;;;;;10.77;3.20;;;;;;;;;;5033681;28;20049;-81
2022/11/24 14:31:24;;;;;;;14.20;3.05;;;;;;;;;;5044498;28;20049;-81
2022/11/24 14:33:51;;;;;;;16.35;3.30;;;;;;;;;;5051561;28;20535;-81
2022/11/24 14:36:17;;;;;;;18.77;4.13;;;;;;;;;;5047393;28;20045;-81
2022/11/24 14:38:43;;;;;;;11.70;3.70;;;;;;;;;;5035616;28;20406;-81
2022/11/24 14:41:15;;;;;;;13.43;3.00;;;;;;;;;;5054375;28;20037;-81
2022/11/24 14:43:41;;;;;;;14.57;3.95;;;;;;;;;;5050723;28;20076;-80
2022/11/24 14:46:13;;;;;;;24.92;3.80;;;;;;;;;;5048444;28;20053;-81